Terminal Aerodrome Forecast
Issued by NWS

Home | Current Version | Previous Version | Text Only | Print | Product List | Glossary On
Versions: 1 2 3 4 5 6 7 8 9 10 11 12 13
000
FTAK31 PAJN 242300
TAFAGY
TAF
PAGY 242323Z 2500/2524 VRB03KT P6SM SCT050 BKN070
     FM250900 04003KT P6SM VCSH SCT015 BKN050 OVC070
     FM252100 04008KT P6SM SCT050 BKN070
      AMD LTD TO CLD VIS AND WIND=

USA.gov is the U.S. government's official web portal to all federal, state and local government web resources and services.